Time;durP1;ratioP1;P1;durP2;ratioP2;P2;SDS_P1;SDS_P2;PMS_P1;PMS_P2;Temp;Humidity;BMP_temperature;BMP_pressure;BME280_temperature;BME280_humidity;BME280_pressure;Samples;Min_cycle;Max_cycle;Signal;HPM_P1;HPM_P2
2022/12/18 00:01:31;;;;;;;64.50;29.75;;;;;;;-6.97;91.52;102796.94;4949459;28;20115;-68
2022/12/18 00:04:00;;;;;;;64.50;27.75;;;;;;;-7.00;91.47;102791.59;4950978;28;21079;-68
2022/12/18 00:06:29;;;;;;;58.75;28.42;;;;;;;-7.02;91.25;102788.91;4951621;28;20044;-69
2022/12/18 00:08:58;;;;;;;64.53;28.90;;;;;;;-7.05;91.47;102789.59;4950398;28;20047;-69
2022/12/18 00:11:29;;;;;;;61.75;27.90;;;;;;;-7.04;91.65;102790.47;4947209;28;20075;-69
2022/12/18 00:13:59;;;;;;;66.25;28.17;;;;;;;-7.03;91.92;102793.16;4949764;28;20059;-69
2022/12/18 00:16:29;;;;;;;60.17;29.75;;;;;;;-7.02;91.88;102797.50;4950828;28;20771;-69
2022/12/18 00:18:58;;;;;;;59.20;27.30;;;;;;;-7.04;91.77;102783.69;4949848;28;20510;-70
2022/12/18 00:21:26;;;;;;;62.13;27.23;;;;;;;-7.05;91.66;102781.00;4950988;28;20050;-71
2022/12/18 00:23:54;;;;;;;55.85;26.65;;;;;;;-7.09;91.51;102781.56;4945229;28;20118;-72
2022/12/18 00:26:29;;;;;;;54.25;26.17;;;;;;;-7.13;91.77;102785.59;4944056;28;20142;-72
2022/12/18 00:29:06;;;;;;;55.40;26.20;;;;;;;-7.13;91.77;102790.72;4947521;28;20043;-71
2022/12/18 00:31:33;;;;;;;57.05;25.75;;;;;;;-7.17;91.66;102789.56;4950313;28;20043;-71
2022/12/18 00:34:02;;;;;;;53.33;25.25;;;;;;;-7.22;91.45;102780.66;4935819;28;20088;-71
2022/12/18 00:36:34;;;;;;;53.35;25.38;;;;;;;-7.20;91.71;102779.13;4950692;28;20083;-71
2022/12/18 00:39:04;;;;;;;49.75;25.08;;;;;;;-7.23;91.64;102773.75;4949291;28;20123;-72
2022/12/18 00:44:19;;;;;;;55.25;25.50;;;;;;;-7.27;91.36;102769.16;4936818;28;20052;-71
2022/12/18 00:46:47;;;;;;;50.05;24.15;;;;;;;-7.28;91.42;102762.28;4942660;28;20498;-71
2022/12/18 00:49:18;;;;;;;51.53;23.48;;;;;;;-7.28;91.44;102767.41;4949484;28;20040;-70
2022/12/18 00:51:46;;;;;;;55.80;24.15;;;;;;;-7.29;91.46;102774.97;4926340;28;20059;-70
2022/12/18 00:54:15;;;;;;;50.70;25.15;;;;;;;-7.30;91.61;102776.66;4949037;28;20055;-71
2022/12/18 00:56:42;;;;;;;51.50;25.23;;;;;;;-7.31;91.32;102784.19;4947092;28;20074;-70
2022/12/18 00:59:17;;;;;;;51.30;24.35;;;;;;;-7.34;91.31;102780.66;4949690;28;20518;-70
2022/12/18 01:01:46;;;;;;;53.15;25.63;;;;;;;-7.34;91.81;102770.41;4950196;28;20047;-71
2022/12/18 01:04:14;;;;;;;56.38;26.30;;;;;;;-7.34;91.38;102778.09;4947284;28;20039;-73
2022/12/18 01:06:45;;;;;;;53.55;25.08;;;;;;;-7.32;91.71;102772.19;4950689;28;20043;-72
2022/12/18 01:09:12;;;;;;;54.33;25.10;;;;;;;-7.31;91.72;102773.94;4935911;28;20047;-72
2022/12/18 01:11:39;;;;;;;51.78;26.08;;;;;;;-7.32;91.71;102785.00;4954578;28;20040;-72
2022/12/18 01:14:07;;;;;;;53.88;24.98;;;;;;;-7.34;91.68;102792.56;4952517;28;20036;-71
2022/12/18 01:16:35;;;;;;;50.88;24.83;;;;;;;-7.37;91.64;102789.75;4935956;28;20517;-71
2022/12/18 01:19:04;;;;;;;49.40;23.52;;;;;;;-7.39;91.69;102791.34;4934086;28;20526;-71
2022/12/18 01:21:31;;;;;;;49.33;24.15;;;;;;;-7.40;91.43;102775.06;4954430;28;20119;-70
2022/12/18 01:24:03;;;;;;;48.38;23.48;;;;;;;-7.40;91.48;102785.31;4953135;28;20051;-70
2022/12/18 01:26:30;;;;;;;47.42;23.17;;;;;;;-7.40;91.82;102782.75;4952861;28;20055;-70
2022/12/18 01:28:58;;;;;;;52.72;23.88;;;;;;;-7.41;91.57;102782.66;4950303;28;20095;-70
2022/12/18 01:31:32;;;;;;;46.88;23.08;;;;;;;-7.41;91.69;102774.97;4935880;28;20056;-70
2022/12/18 01:34:08;;;;;;;50.08;22.08;;;;;;;-7.42;91.52;102786.84;4953056;28;20111;-71
2022/12/18 01:36:38;;;;;;;45.55;20.52;;;;;;;-7.46;91.37;102782.31;4936645;28;20052;-71
2022/12/18 01:39:12;;;;;;;47.22;21.38;;;;;;;-7.50;91.32;102776.06;4950859;28;20042;-71
2022/12/18 01:44:58;;;;;;;41.72;20.55;;;;;;;-7.57;91.37;102773.78;4951391;28;20126;-70
2022/12/18 01:47:30;;;;;;;43.22;21.13;;;;;;;-7.60;91.38;102782.94;4942481;28;20045;-70
2022/12/18 01:50:06;;;;;;;42.40;21.58;;;;;;;-7.62;91.53;102774.22;4954276;28;20123;-70
2022/12/18 01:52:35;;;;;;;40.10;20.90;;;;;;;-7.66;91.50;102778.22;4952735;28;20096;-70
2022/12/18 01:55:05;;;;;;;41.72;20.45;;;;;;;-7.70;91.74;102773.69;4952932;28;20544;-70
2022/12/18 01:57:34;;;;;;;43.85;20.00;;;;;;;-7.72;91.37;102773.53;4950185;28;20057;-71
2022/12/18 02:00:12;;;;;;;41.35;20.13;;;;;;;-7.74;91.36;102763.97;4947948;28;20431;-70
2022/12/18 02:02:43;;;;;;;38.70;19.13;;;;;;;-7.72;91.62;102785.47;4947854;28;20044;-70
2022/12/18 02:05:18;;;;;;;39.10;19.55;;;;;;;-7.72;91.76;102780.34;4951427;28;20079;-71
2022/12/18 02:08:34;;;;;;;39.60;20.23;;;;;;;-7.72;91.25;102778.66;4935803;28;20051;-71
2022/12/18 02:11:21;;;;;;;35.63;18.10;;;;;;;-7.71;91.35;102775.31;4928760;28;20052;-71
2022/12/18 02:14:06;;;;;;;34.90;18.00;;;;;;;-7.71;91.45;102775.31;4953589;28;20039;-70
2022/12/18 02:16:45;;;;;;;;;;;;;;;-7.73;91.37;102783.69;4951606;28;20044;-70
2022/12/18 02:20:05;;;;;;;33.15;16.48;;;;;;;-7.74;91.67;102782.81;4952144;28;19930;-71
2022/12/18 02:22:51;;;;;;;35.33;17.92;;;;;;;-7.75;91.40;102783.56;4945122;28;20071;-70
2022/12/18 02:26:01;;;;;;;35.38;18.17;;;;;;;-7.80;91.46;102775.53;4934749;28;20095;-70
2022/12/18 02:28:34;;;;;;;39.47;19.52;;;;;;;-7.85;91.58;102763.16;4950052;28;21054;-70
2022/12/18 02:31:13;;;;;;;37.63;17.85;;;;;;;-7.83;91.42;102767.63;4932704;28;20052;-71
2022/12/18 02:33:45;;;;;;;39.78;18.17;;;;;;;-7.84;91.65;102758.16;4933685;28;20050;-71
2022/12/18 02:36:16;;;;;;;38.40;18.27;;;;;;;-7.86;91.63;102759.69;4952193;28;20058;-71
2022/12/18 02:38:46;;;;;;;36.83;18.60;;;;;;;-7.86;91.45;102762.25;4942505;28;20048;-70
2022/12/18 02:41:17;;;;;;;37.03;17.77;;;;;;;-7.90;91.11;102760.25;4935795;28;20047;-70
2022/12/18 02:43:56;;;;;;;35.55;18.15;;;;;;;-7.91;91.34;102758.47;4936559;28;20051;-71
2022/12/18 02:46:36;;;;;;;32.72;17.15;;;;;;;-7.94;91.56;102754.78;4951962;28;20127;-71
2022/12/18 02:49:41;;;;;;;35.75;17.77;;;;;;;-7.91;91.53;102773.84;4949002;28;20190;-71
2022/12/18 02:52:54;;;;;;;35.45;17.58;;;;;;;-7.88;91.40;102766.34;4932612;28;20529;-71
2022/12/18 02:56:05;;;;;;;37.72;18.02;;;;;;;-7.86;91.45;102767.38;4950296;28;20056;-71
2022/12/18 02:58:54;;;;;;;37.70;17.25;;;;;;;-7.89;91.69;102763.69;4944995;28;20048;-71
2022/12/18 03:01:41;;;;;;;34.80;16.92;;;;;;;-7.92;91.68;102760.88;4932216;28;20047;-71
2022/12/18 03:04:27;;;;;;;37.17;17.13;;;;;;;-7.97;91.26;102743.53;4928603;28;20044;-71
2022/12/18 03:07:03;;;;;;;33.17;17.05;;;;;;;-7.98;91.52;102746.88;4947087;28;20044;-71
2022/12/18 03:09:40;;;;;;;37.03;16.92;;;;;;;-8.00;91.40;102739.84;4936357;28;20139;-71
2022/12/18 03:12:34;;;;;;;33.10;16.00;;;;;;;-7.99;91.31;102746.75;4950054;28;20044;-71
2022/12/18 03:15:16;;;;;;;33.83;16.63;;;;;;;-7.96;91.63;102746.97;4949453;28;20040;-71
2022/12/18 03:18:01;;;;;;;32.22;16.60;;;;;;;-7.92;91.86;102755.78;4934060;28;20047;-71
2022/12/18 03:20:34;;;;;;;33.85;17.17;;;;;;;-7.90;91.90;102755.13;4948200;28;20055;-71
2022/12/18 03:23:14;;;;;;;34.17;16.33;;;;;;;-7.92;91.53;102749.00;4952204;28;20071;-71
2022/12/18 03:25:48;;;;;;;34.92;17.52;;;;;;;-7.96;91.58;102755.56;4950154;28;20056;-70
2022/12/18 03:28:21;;;;;;;36.97;17.42;;;;;;;-8.03;91.50;102750.72;4949256;28;20050;-70
2022/12/18 03:31:00;;;;;;;33.53;16.95;;;;;;;-8.09;91.21;102751.94;4947585;28;20059;-70
2022/12/18 03:33:43;;;;;;;36.22;17.20;;;;;;;-8.13;91.53;102749.16;4950394;28;20052;-70
2022/12/18 03:36:11;;;;;;;30.17;16.63;;;;;;;-8.16;91.33;102754.03;4951348;28;20047;-70
2022/12/18 03:38:38;;;;;;;30.35;15.85;;;;;;;-8.18;91.51;102749.56;4934817;28;20071;-70
2022/12/18 03:41:30;;;;;;;35.78;16.75;;;;;;;-8.21;91.46;102745.09;4934665;28;21515;-70
2022/12/18 03:44:26;;;;;;;31.20;17.10;;;;;;;-8.26;91.22;102738.72;4950121;28;20484;-70
2022/12/18 03:47:27;;;;;;;32.50;15.88;;;;;;;-8.31;91.17;102737.50;4951268;28;20263;-70
2022/12/18 03:50:36;;;;;;;36.42;16.10;;;;;;;-8.37;91.30;102742.13;4935993;28;20476;-70
2022/12/18 03:53:36;;;;;;;32.22;14.90;;;;;;;-8.41;91.12;102733.31;4920817;28;20058;-70
2022/12/18 03:56:06;;;;;;;30.05;15.25;;;;;;;-8.46;91.19;102735.53;4934110;28;20123;-70
2022/12/18 03:58:41;;;;;;;28.73;14.20;;;;;;;-8.44;91.44;102733.06;4933895;28;20522;-70
2022/12/18 04:01:20;;;;;;;31.85;15.70;;;;;;;-8.41;91.57;102725.66;4933647;28;20135;-70
2022/12/18 04:03:50;;;;;;;30.88;14.50;;;;;;;-8.39;91.45;102719.00;4920771;28;20040;-68
2022/12/18 04:06:20;;;;;;;30.58;15.02;;;;;;;-8.33;91.62;102714.31;4929333;28;20054;-73
2022/12/18 04:08:48;;;;;;;26.83;14.50;;;;;;;-8.32;91.24;102708.44;4947680;28;20040;-71
2022/12/18 04:11:20;;;;;;;32.88;15.45;;;;;;;-8.27;91.48;102712.25;4949471;28;20044;-71
2022/12/18 04:13:49;;;;;;;27.77;14.38;;;;;;;-8.25;91.42;102707.25;4946488;28;20048;-72
2022/12/18 04:16:21;;;;;;;29.33;13.98;;;;;;;-8.24;91.51;102703.91;4934585;28;20044;-71
2022/12/18 04:18:52;;;;;;;26.90;14.55;;;;;;;-8.21;91.56;102698.13;4936906;28;20044;-71
2022/12/18 04:21:21;;;;;;;28.77;14.40;;;;;;;-8.20;91.42;102694.81;4951994;28;20127;-71
2022/12/18 04:23:49;;;;;;;26.05;13.63;;;;;;;-8.18;91.69;102696.69;4943473;28;20046;-71
2022/12/18 04:26:19;;;;;;;29.17;15.32;;;;;;;-8.13;91.72;102690.28;4925344;28;20063;-71
2022/12/18 04:29:04;;;;;;;29.08;14.30;;;;;;;-8.04;91.66;102699.41;4950762;28;20051;-71
2022/12/18 04:31:32;;;;;;;28.13;14.95;;;;;;;-8.02;91.76;102690.19;4932817;28;20052;-67
2022/12/18 04:33:59;;;;;;;28.83;15.32;;;;;;;-7.96;91.63;102686.44;4949146;28;20046;-67
2022/12/18 04:36:28;;;;;;;30.55;15.45;;;;;;;-7.91;91.83;102690.97;4947791;28;20055;-66
2022/12/18 04:38:55;;;;;;;29.08;14.90;;;;;;;-7.89;91.85;102679.19;4929603;28;20135;-67
2022/12/18 04:41:23;;;;;;;30.65;15.55;;;;;;;-7.87;91.89;102682.75;4934837;28;20044;-67
2022/12/18 04:43:52;;;;;;;27.70;14.60;;;;;;;-7.83;91.85;102677.97;4935098;28;20051;-66
2022/12/18 04:46:19;;;;;;;31.95;14.85;;;;;;;-7.83;92.14;102677.06;4954491;28;20046;-71
2022/12/18 04:48:46;;;;;;;29.13;14.75;;;;;;;-7.82;92.15;102684.88;4953573;28;20533;-70
2022/12/18 04:51:14;;;;;;;29.00;15.35;;;;;;;-7.83;92.08;102680.53;4955728;28;20051;-70
2022/12/18 04:53:41;;;;;;;29.13;15.45;;;;;;;-7.83;92.00;102690.78;4954154;28;20090;-71
2022/12/18 04:56:13;;;;;;;29.80;14.25;;;;;;;-7.83;92.00;102679.63;4955038;28;20051;-72
2022/12/18 04:58:43;;;;;;;27.35;14.32;;;;;;;-7.82;92.08;102687.44;4950815;28;20051;-71
2022/12/18 05:01:13;;;;;;;25.15;14.57;;;;;;;-7.82;91.90;102684.88;4942961;28;20098;-72
2022/12/18 05:03:40;;;;;;;29.58;14.88;;;;;;;-7.78;92.05;102685.13;4952726;28;20589;-71
2022/12/18 05:06:09;;;;;;;28.73;15.15;;;;;;;-7.76;92.09;102689.59;4953773;28;20131;-71
2022/12/18 05:08:36;;;;;;;28.98;15.45;;;;;;;-7.71;91.96;102689.91;4952855;28;20039;-71
2022/12/18 05:11:15;;;;;;;32.85;16.20;;;;;;;-7.68;92.14;102697.84;4955413;28;20044;-71
2022/12/18 05:13:45;;;;;;;27.23;15.20;;;;;;;-7.65;91.96;102704.06;4952085;28;20115;-71
2022/12/18 05:16:13;;;;;;;27.52;15.50;;;;;;;-7.66;92.39;102711.63;4954943;28;20048;-71
2022/12/18 05:18:42;;;;;;;27.92;15.02;;;;;;;-7.67;91.91;102718.44;4953743;28;20111;-71
2022/12/18 05:21:10;;;;;;;28.52;15.20;;;;;;;-7.64;91.95;102725.44;4954735;28;20099;-70
2022/12/18 05:23:37;;;;;;;26.92;14.90;;;;;;;-7.65;92.18;102726.22;4952336;28;20498;-72
2022/12/18 05:26:07;;;;;;;29.65;15.43;;;;;;;-7.65;91.97;102724.56;4954419;28;20520;-72
2022/12/18 05:28:36;;;;;;;28.08;14.77;;;;;;;-7.63;92.02;102736.59;4945433;28;20126;-72
2022/12/18 05:31:05;;;;;;;27.13;14.63;;;;;;;-7.65;92.01;102745.06;4953583;28;20572;-71
2022/12/18 05:33:34;;;;;;;27.13;14.27;;;;;;;-7.63;92.05;102750.28;4952498;28;20044;-72
2022/12/18 05:36:06;;;;;;;26.55;15.45;;;;;;;-7.63;92.07;102750.28;4954205;28;20039;-71
2022/12/18 05:38:37;;;;;;;30.92;15.90;;;;;;;-7.60;92.38;102755.66;4952066;28;20052;-70
2022/12/18 05:41:10;;;;;;;29.50;15.85;;;;;;;-7.59;91.96;102736.03;4954654;28;20071;-70
2022/12/18 05:43:40;;;;;;;32.13;16.50;;;;;;;-7.56;91.92;102728.59;4950134;28;20039;-70
2022/12/18 05:46:15;;;;;;;28.05;15.82;;;;;;;-7.54;92.23;102733.03;4953118;28;20470;-70
2022/12/18 05:48:43;;;;;;;30.27;15.32;;;;;;;-7.53;92.41;102739.06;4938370;28;20491;-71
2022/12/18 05:51:15;;;;;;;31.13;15.60;;;;;;;-7.51;92.22;102737.50;4945166;28;20059;-71
2022/12/18 05:53:43;;;;;;;28.10;15.13;;;;;;;-7.49;92.30;102741.06;4944613;28;20554;-71
2022/12/18 05:56:17;;;;;;;29.80;15.27;;;;;;;-7.46;91.99;102731.06;4948695;28;20047;-71
2022/12/18 05:58:45;;;;;;;27.75;15.52;;;;;;;-7.38;92.48;102719.69;4948719;28;20052;-71
2022/12/18 06:01:26;;;;;;;27.50;15.25;;;;;;;-7.31;92.61;102715.00;4947071;28;20122;-70
2022/12/18 06:03:54;;;;;;;29.75;16.38;;;;;;;-7.27;92.63;102710.22;4952370;28;20040;-69
2022/12/18 06:06:27;;;;;;;29.70;16.00;;;;;;;-7.26;92.42;102704.31;4953627;28;20032;-71
2022/12/18 06:08:56;;;;;;;30.13;14.85;;;;;;;-7.26;92.42;102699.19;4942091;28;20877;-71
2022/12/18 06:11:26;;;;;;;25.88;14.68;;;;;;;-7.22;92.38;102690.03;4952924;28;20048;-71
2022/12/18 06:13:55;;;;;;;27.65;15.68;;;;;;;-7.20;92.65;102691.03;4933067;28;20048;-71
2022/12/18 06:16:27;;;;;;;26.85;15.32;;;;;;;-7.18;92.62;102692.97;4953317;28;20050;-71
2022/12/18 06:18:59;;;;;;;27.10;15.45;;;;;;;-7.13;92.41;102679.56;4948210;28;20086;-68
2022/12/18 06:21:28;;;;;;;28.08;16.00;;;;;;;-7.10;92.83;102680.66;4953208;28;20055;-69
2022/12/18 06:23:56;;;;;;;29.55;15.30;;;;;;;-6.98;92.87;102677.19;4943848;28;20108;-68
2022/12/18 06:26:24;;;;;;;26.83;14.98;;;;;;;-6.94;93.04;102680.09;4941680;28;20052;-70
2022/12/18 06:28:56;;;;;;;26.85;15.48;;;;;;;-6.88;93.07;102667.72;4944810;28;20221;-71
2022/12/18 06:31:25;;;;;;;26.55;14.75;;;;;;;-6.82;93.11;102668.91;4945899;28;20055;-71
2022/12/18 06:33:53;;;;;;;27.60;14.38;;;;;;;-6.76;93.08;102674.47;4943754;28;20498;-71
2022/12/18 06:36:22;;;;;;;25.92;14.68;;;;;;;-6.70;92.89;102677.47;4942392;28;20044;-71
2022/12/18 06:38:49;;;;;;;27.60;14.90;;;;;;;-6.64;93.06;102677.88;4957459;28;20048;-72
2022/12/18 06:41:20;;;;;;;29.55;14.90;;;;;;;-6.58;92.97;102674.84;4948980;28;20564;-71
2022/12/18 06:43:47;;;;;;;29.20;16.33;;;;;;;-6.55;92.85;102669.94;4948602;28;20044;-71
2022/12/18 06:46:14;;;;;;;28.65;15.75;;;;;;;-6.55;92.59;102665.69;4946096;28;20052;-71
2022/12/18 06:48:42;;;;;;;26.42;15.07;;;;;;;-6.55;92.83;102651.97;4948459;28;20078;-69
2022/12/18 06:51:10;;;;;;;28.05;15.32;;;;;;;-6.58;92.81;102652.66;4959923;28;20048;-69
2022/12/18 06:53:37;;;;;;;27.17;15.27;;;;;;;-6.58;92.68;102651.75;4953007;28;20054;-70
2022/12/18 06:56:07;;;;;;;25.23;14.90;;;;;;;-6.56;92.43;102653.63;4943075;28;20060;-69
2022/12/18 06:58:38;;;;;;;24.67;14.10;;;;;;;-6.56;92.34;102645.94;4952210;28;20081;-70
2022/12/18 07:01:10;;;;;;;23.35;13.85;;;;;;;-6.57;92.45;102643.28;4949537;28;20046;-70
2022/12/18 07:03:40;;;;;;;24.08;14.65;;;;;;;-6.57;92.40;102646.75;4944130;28;20047;-70
2022/12/18 07:06:19;;;;;;;24.80;14.30;;;;;;;-6.59;92.75;102649.97;4938457;28;20570;-70
2022/12/18 07:08:48;;;;;;;25.52;14.75;;;;;;;-6.61;92.39;102646.44;4946637;28;20068;-70
2022/12/18 07:11:17;;;;;;;25.70;14.57;;;;;;;-6.59;92.66;102639.72;4937520;28;20507;-70
2022/12/18 07:13:46;;;;;;;25.95;14.98;;;;;;;-6.58;92.61;102647.53;4937203;28;20545;-70
2022/12/18 07:16:20;;;;;;;26.38;14.75;;;;;;;-6.56;92.37;102642.50;4949427;28;20063;-70
2022/12/18 07:18:54;;;;;;;28.45;15.00;;;;;;;-6.57;92.46;102654.44;4942939;28;20040;-70
2022/12/18 07:21:24;;;;;;;22.98;13.38;;;;;;;-6.60;92.34;102645.63;4954556;28;20047;-70
2022/12/18 07:23:51;;;;;;;23.40;14.30;;;;;;;-6.61;92.35;102642.19;4948901;28;20039;-71
2022/12/18 07:26:20;;;;;;;24.85;15.00;;;;;;;-6.63;92.25;102640.31;4948644;28;20052;-70
2022/12/18 07:28:48;;;;;;;24.13;14.07;;;;;;;-6.60;92.41;102645.63;4948866;28;20036;-70
2022/12/18 07:31:19;;;;;;;26.40;15.18;;;;;;;-6.58;92.20;102644.97;4945684;28;20536;-70
2022/12/18 07:33:49;;;;;;;28.92;14.68;;;;;;;-6.52;92.52;102646.16;4952067;28;20509;-70
2022/12/18 07:36:16;;;;;;;25.48;14.43;;;;;;;-6.48;92.58;102645.59;4950931;28;20047;-70
2022/12/18 07:38:48;;;;;;;26.15;14.63;;;;;;;-6.45;92.55;102636.44;4946575;28;20050;-70
2022/12/18 07:41:18;;;;;;;26.45;14.35;;;;;;;-6.36;92.75;102635.25;4950062;28;20047;-71
2022/12/18 07:43:46;;;;;;;23.33;14.00;;;;;;;-6.32;92.65;102632.13;4946128;28;20481;-71
2022/12/18 07:46:15;;;;;;;23.45;14.80;;;;;;;-6.29;92.64;102629.75;4946018;28;20036;-71
2022/12/18 07:48:43;;;;;;;26.25;14.88;;;;;;;-6.22;92.85;102628.50;4939720;28;20043;-72
2022/12/18 07:51:17;;;;;;;27.88;14.32;;;;;;;-6.10;92.96;102621.63;4947852;28;20067;-71
2022/12/18 07:53:44;;;;;;;23.88;14.80;;;;;;;-6.04;92.89;102608.28;4944240;28;20075;-71
2022/12/18 07:56:12;;;;;;;26.15;14.65;;;;;;;-5.97;92.83;102608.78;4946417;28;20092;-72
2022/12/18 07:58:58;;;;;;;27.27;14.75;;;;;;;-5.87;92.86;102605.09;4947756;28;20577;-72
2022/12/18 08:01:26;;;;;;;23.30;13.80;;;;;;;-5.78;92.60;102592.84;4952336;28;20052;-71
2022/12/18 08:03:54;;;;;;;23.67;14.40;;;;;;;-5.71;92.43;102585.56;4955773;28;20051;-73
2022/12/18 08:06:21;;;;;;;27.00;15.23;;;;;;;-5.61;92.28;102580.22;4952799;28;20052;-73
2022/12/18 08:08:54;;;;;;;24.52;14.45;;;;;;;-5.52;92.12;102585.94;4944202;28;20048;-72
2022/12/18 08:11:24;;;;;;;26.52;14.52;;;;;;;-5.42;92.27;102573.69;4951588;28;20054;-72
2022/12/18 08:13:52;;;;;;;23.23;13.68;;;;;;;-5.31;91.94;102593.25;4950362;28;20047;-73
2022/12/18 08:16:21;;;;;;;23.90;14.13;;;;;;;-5.25;91.86;102595.31;4950232;28;20044;-71
2022/12/18 08:18:53;;;;;;;21.48;13.43;;;;;;;-5.15;91.66;102592.53;4948675;28;20126;-71
2022/12/18 08:21:24;;;;;;;21.85;13.63;;;;;;;-5.08;91.40;102594.66;4951718;28;20044;-71
2022/12/18 08:23:54;;;;;;;22.67;13.82;;;;;;;-4.99;91.26;102597.81;4951071;28;20040;-71
2022/12/18 08:26:24;;;;;;;22.95;13.93;;;;;;;-4.92;91.24;102593.94;4950549;28;20235;-72
2022/12/18 08:28:51;;;;;;;23.15;13.40;;;;;;;-4.85;91.21;102598.66;4933516;28;20048;-70
2022/12/18 08:31:19;;;;;;;23.65;13.80;;;;;;;-4.78;90.74;102589.63;4945397;28;20115;-71
2022/12/18 08:33:50;;;;;;;23.02;13.48;;;;;;;-4.69;90.52;102584.16;4947812;28;20972;-72
2022/12/18 08:36:19;;;;;;;24.63;13.60;;;;;;;-4.54;91.31;102579.03;4948962;28;20067;-73
2022/12/18 08:38:47;;;;;;;24.88;15.13;;;;;;;-4.20;92.30;102568.13;4950482;28;20052;-73
2022/12/18 08:41:17;;;;;;;22.48;13.50;;;;;;;-3.92;92.08;102582.63;4951416;28;20040;-73
2022/12/18 08:46:39;;;;;;;20.77;13.55;;;;;;;-3.40;90.42;102569.16;4951194;28;20158;-73
2022/12/18 08:49:08;;;;;;;23.23;13.15;;;;;;;-3.23;88.54;102567.50;4949666;28;20043;-73
2022/12/18 08:51:37;;;;;;;20.45;12.35;;;;;;;-3.10;87.69;102566.47;4948394;28;20051;-73
2022/12/18 08:54:06;;;;;;;20.50;12.40;;;;;;;-2.88;87.34;102577.94;4941977;28;20040;-73
2022/12/18 08:56:33;;;;;;;19.65;11.60;;;;;;;-2.75;86.04;102589.81;4946419;28;20040;-73
2022/12/18 08:59:01;;;;;;;20.85;12.52;;;;;;;-2.66;85.24;102578.28;4950967;28;20052;-73
2022/12/18 09:01:28;;;;;;;19.88;11.93;;;;;;;-2.61;84.48;102572.44;4948568;28;20532;-73
2022/12/18 09:03:55;;;;;;;21.40;12.25;;;;;;;-2.62;84.14;102575.81;4946804;28;20054;-73
2022/12/18 09:06:23;;;;;;;20.17;12.18;;;;;;;-2.56;83.19;102579.63;4951636;28;20044;-73
2022/12/18 09:08:50;;;;;;;18.27;11.63;;;;;;;-2.31;82.71;102577.41;4952182;28;20098;-73
2022/12/18 09:11:25;;;;;;;18.02;10.75;;;;;;;-2.24;81.51;102575.22;4950134;28;20116;-73
2022/12/18 09:13:53;;;;;;;17.00;10.93;;;;;;;-2.16;81.10;102560.09;4934372;28;20429;-73
2022/12/18 09:16:23;;;;;;;17.80;11.00;;;;;;;-2.09;80.61;102549.25;4936943;28;20459;-72
2022/12/18 09:18:59;;;;;;;17.48;10.18;;;;;;;-1.94;79.96;102554.28;4943378;28;20126;-71
2022/12/18 09:21:35;;;;;;;17.17;9.88;;;;;;;-1.91;80.02;102553.53;4950714;28;20118;-72
2022/12/18 09:24:05;;;;;;;16.90;10.38;;;;;;;-1.90;79.35;102555.31;4933209;28;20550;-72
2022/12/18 09:26:36;;;;;;;18.98;10.90;;;;;;;-1.84;79.17;102547.88;4948230;28;20506;-71
2022/12/18 09:29:04;;;;;;;18.05;10.55;;;;;;;-1.95;78.75;102549.03;4947568;28;20931;-71
2022/12/18 09:31:31;;;;;;;17.27;11.15;;;;;;;-2.13;79.20;102549.03;4948350;28;20733;-71
2022/12/18 09:34:00;;;;;;;17.95;10.45;;;;;;;-2.25;79.45;102557.06;4954940;28;20071;-71
2022/12/18 09:36:27;;;;;;;18.10;11.80;;;;;;;-2.36;80.11;102559.09;4943162;28;20044;-72
2022/12/18 09:38:54;;;;;;;17.45;11.30;;;;;;;-2.42;80.58;102566.53;4953693;28;20047;-71
2022/12/18 09:41:53;;;;;;;15.50;10.32;;;;;;;-2.44;80.74;102555.22;4951528;28;20553;-72
2022/12/18 09:44:34;;;;;;;18.50;11.45;;;;;;;-2.44;80.79;102565.56;4948538;28;20044;-72
2022/12/18 09:47:25;;;;;;;18.30;11.27;;;;;;;-2.43;81.03;102562.19;4935481;29;20041;-72
2022/12/18 09:50:05;;;;;;;16.35;10.27;;;;;;;-2.39;80.83;102557.25;4937681;28;20810;-72
2022/12/18 09:52:47;;;;;;;17.73;10.73;;;;;;;-2.36;80.81;102535.84;4951822;28;20044;-72
2022/12/18 09:55:41;;;;;;;18.90;10.85;;;;;;;-2.32;80.79;102540.34;4947286;28;20058;-72
2022/12/18 09:58:10;;;;;;;18.10;11.20;;;;;;;-2.29;80.91;102547.38;4941315;28;20059;-72
2022/12/18 10:00:37;;;;;;;17.80;10.77;;;;;;;-2.25;80.96;102554.47;4953551;28;20052;-72
2022/12/18 10:03:14;;;;;;;16.50;10.00;;;;;;;-2.18;80.88;102551.38;4954324;28;20071;-72
2022/12/18 10:06:02;;;;;;;18.48;10.43;;;;;;;-2.12;80.86;102543.03;4928325;28;20132;-73
2022/12/18 10:09:16;;;;;;;18.38;10.95;;;;;;;-2.06;80.40;102540.75;4945649;28;20055;-72
2022/12/18 10:11:57;;;;;;;16.67;10.20;;;;;;;-1.98;79.72;102533.38;4950101;28;20429;-72
2022/12/18 10:14:40;;;;;;;15.70;10.00;;;;;;;-1.92;79.69;102521.63;4949006;28;20049;-71
2022/12/18 10:17:44;;;;;;;16.88;11.18;;;;;;;-1.88;79.23;102512.31;4954227;28;20540;-71
2022/12/18 10:20:47;;;;;;;18.02;11.18;;;;;;;-1.81;78.85;102498.88;4950275;28;20414;-71
2022/12/18 10:23:28;;;;;;;17.58;11.50;;;;;;;-1.76;78.66;102494.81;4945275;28;20050;-71
2022/12/18 10:26:04;;;;;;;23.67;15.40;;;;;;;-1.69;77.83;102502.84;4951580;28;20060;-72
2022/12/18 10:28:38;;;;;;;18.95;11.00;;;;;;;-1.65;78.12;102505.66;4950122;28;20502;-72
2022/12/18 10:31:07;;;;;;;;;;;;;;;-1.61;77.72;102512.75;4951648;28;20666;-71
2022/12/18 10:33:34;;;;;;;18.30;11.07;;;;;;;-1.57;77.91;102509.47;4951991;28;19989;-72
2022/12/18 10:36:03;;;;;;;22.30;13.60;;;;;;;-1.48;78.11;102502.97;4944743;28;20073;-72
2022/12/18 10:38:32;;;;;;;23.10;16.63;;;;;;;-1.42;78.10;102500.66;4953204;28;20095;-71
2022/12/18 10:41:26;;;;;;;22.35;15.18;;;;;;;-1.36;78.34;102502.63;4951606;28;20047;-71
2022/12/18 10:44:22;;;;;;;17.42;10.80;;;;;;;-1.30;77.34;102492.56;4948235;28;20063;-71
2022/12/18 10:47:06;;;;;;;17.65;11.23;;;;;;;-1.24;77.36;102508.38;4945262;28;20127;-71
2022/12/18 10:49:49;;;;;;;17.70;11.02;;;;;;;-1.20;76.83;102504.22;4950972;28;20052;-71
2022/12/18 10:52:21;;;;;;;18.02;11.25;;;;;;;-1.16;77.10;102481.13;4950465;28;20036;-71
2022/12/18 10:54:58;;;;;;;17.02;11.02;;;;;;;-1.12;76.88;102467.47;4934343;29;20036;-71
2022/12/18 10:57:38;;;;;;;17.90;10.65;;;;;;;-1.05;77.06;102468.66;4942168;28;20051;-71
2022/12/18 11:00:27;;;;;;;17.60;10.85;;;;;;;-1.02;76.22;102455.84;4947512;28;20048;-70
2022/12/18 11:02:56;;;;;;;19.58;10.68;;;;;;;-0.99;75.80;102450.81;4942439;28;20044;-70
2022/12/18 11:05:33;;;;;;;17.70;10.82;;;;;;;-0.92;75.41;102457.13;4951779;28;20043;-72
2022/12/18 11:08:01;;;;;;;18.00;10.90;;;;;;;-0.87;75.69;102457.34;4934861;28;20222;-71
2022/12/18 11:10:37;;;;;;;19.60;11.50;;;;;;;-0.83;74.49;102451.44;4952703;28;20556;-69
2022/12/18 11:13:21;;;;;;;17.98;10.98;;;;;;;-0.81;74.01;102442.03;4952311;28;20068;-70
2022/12/18 11:15:50;;;;;;;17.50;11.07;;;;;;;-0.80;73.91;102423.09;4951149;28;20050;-72
2022/12/18 11:18:29;;;;;;;17.98;11.20;;;;;;;-0.77;73.83;102417.16;4951844;28;20051;-70
2022/12/18 11:21:08;;;;;;;17.27;11.07;;;;;;;-0.73;73.19;102425.13;4947539;28;20078;-71
2022/12/18 11:23:48;;;;;;;16.38;10.07;;;;;;;-0.71;73.17;102427.78;4949453;28;20044;-71
2022/12/18 11:26:16;;;;;;;18.38;10.70;;;;;;;-0.68;73.61;102426.22;4945093;28;20047;-72
2022/12/18 11:29:10;;;;;;;17.40;10.45;;;;;;;-0.63;73.06;102422.09;4950021;28;20056;-73
2022/12/18 11:31:38;;;;;;;15.88;9.82;;;;;;;-0.59;73.45;102417.03;4940908;28;20044;-70
2022/12/18 11:34:30;;;;;;;17.88;10.15;;;;;;;-0.55;73.12;102413.72;4951293;28;20126;-71
2022/12/18 11:37:02;;;;;;;19.25;10.63;;;;;;;-0.52;73.71;102413.88;4946537;28;20044;-72
2022/12/18 11:39:44;;;;;;;17.85;10.27;;;;;;;-0.46;72.90;102406.38;4946837;28;20068;-71
2022/12/18 11:42:44;;;;;;;16.73;10.02;;;;;;;-0.42;72.51;102399.59;4939786;28;20055;-70
2022/12/18 11:45:12;;;;;;;18.58;10.43;;;;;;;-0.39;73.26;102402.28;4939845;28;20454;-72
2022/12/18 11:48:24;;;;;;;19.27;11.10;;;;;;;-0.33;71.60;102407.72;4932094;28;20051;-72
2022/12/18 11:51:02;;;;;;;18.50;11.25;;;;;;;-0.33;71.64;102407.72;4951995;28;20055;-71